Time;durP1;ratioP1;P1;durP2;ratioP2;P2;SDS_P1;SDS_P2;PMS_P1;PMS_P2;Temp;Humidity;BMP_temperature;BMP_pressure;BME280_temperature;BME280_humidity;BME280_pressure;Samples;Min_cycle;Max_cycle;Signal;HPM_P1;HPM_P2
2023/09/12 00:01:12;;;;;;;18.73;16.97;;;20.00;1.00;;;;;;5078335;28;20525;-70
2023/09/12 00:03:41;;;;;;;20.37;16.70;;;20.00;1.00;;;;;;5082842;28;20933;-72
2023/09/12 00:06:08;;;;;;;19.90;17.17;;;20.00;1.00;;;;;;5077717;28;20451;-71
2023/09/12 00:08:34;;;;;;;18.50;16.80;;;19.90;1.00;;;;;;5081586;28;21140;-71
2023/09/12 00:11:03;;;;;;;18.47;16.57;;;20.00;1.00;;;;;;5083357;28;20493;-71
2023/09/12 00:13:31;;;;;;;18.00;16.10;;;19.90;1.00;;;;;;5078855;28;20533;-76
2023/09/12 00:15:58;;;;;;;17.90;16.20;;;19.90;1.00;;;;;;5080363;28;20995;-73
2023/09/12 00:18:26;;;;;;;19.63;17.70;;;19.80;1.00;;;;;;5081678;28;20523;-72
2023/09/12 00:20:54;;;;;;;19.37;17.37;;;19.80;1.00;;;;;;5074743;28;20475;-71
2023/09/12 00:23:23;;;;;;;19.77;17.70;;;19.80;1.00;;;;;;5078239;28;21024;-70
2023/09/12 00:25:51;;;;;;;20.00;17.70;;;19.70;1.00;;;;;;5081867;28;20455;-72
2023/09/12 00:28:17;;;;;;;19.77;17.87;;;19.70;1.00;;;;;;5073492;28;20453;-73
2023/09/12 00:30:44;;;;;;;21.00;18.90;;;19.70;1.00;;;;;;5076034;28;20494;-71
2023/09/12 00:33:11;;;;;;;18.30;16.73;;;19.60;1.00;;;;;;5075786;28;20473;-71
2023/09/12 00:35:38;;;;;;;19.80;17.90;;;19.60;1.00;;;;;;5075570;28;20453;-72
2023/09/12 00:38:07;;;;;;;22.50;18.33;;;19.50;1.00;;;;;;5082669;28;20471;-71
2023/09/12 00:40:34;;;;;;;18.20;16.50;;;19.50;1.00;;;;;;5081678;28;20509;-70
2023/09/12 00:43:03;;;;;;;20.37;18.33;;;19.50;1.00;;;;;;5081225;28;20919;-71
2023/09/12 00:45:30;;;;;;;19.53;17.83;;;19.50;1.00;;;;;;5081134;28;20504;-73
2023/09/12 00:47:59;;;;;;;20.70;18.70;;;19.40;1.00;;;;;;5085472;28;20461;-72
2023/09/12 00:50:26;;;;;;;20.40;17.13;;;19.50;1.00;;;;;;5080849;28;20537;-71
2023/09/12 00:52:54;;;;;;;20.50;18.50;;;19.50;1.00;;;;;;5082806;28;20577;-71
2023/09/12 00:55:22;;;;;;;19.47;17.63;;;19.50;1.00;;;;;;5082914;28;20513;-69
2023/09/12 00:57:50;;;;;;;19.93;18.03;;;19.50;1.00;;;;;;5079370;28;20490;-70
2023/09/12 01:00:17;;;;;;;20.63;18.50;;;19.50;1.00;;;;;;5079851;28;20555;-72
2023/09/12 01:02:46;;;;;;;19.70;17.70;;;19.50;1.00;;;;;;5083306;28;20478;-71
2023/09/12 01:05:15;;;;;;;20.60;18.70;;;19.40;1.00;;;;;;5079901;28;20546;-73
2023/09/12 01:07:44;;;;;;;21.07;18.80;;;19.40;1.00;;;;;;5080733;28;20538;-72
2023/09/12 01:10:11;;;;;;;21.50;18.03;;;19.40;1.00;;;;;;5082981;28;20560;-72
2023/09/12 01:12:40;;;;;;;19.17;17.30;;;19.40;1.00;;;;;;5084632;28;20461;-70
2023/09/12 01:15:13;;;;;;;20.60;18.77;;;19.30;1.00;;;;;;5081617;27;20943;-71
2023/09/12 01:17:41;;;;;;;20.30;18.50;;;19.30;1.00;;;;;;5084445;28;20469;-70
2023/09/12 01:20:12;;;;;;;19.93;18.23;;;19.30;1.00;;;;;;5080122;28;21077;-71
2023/09/12 01:22:56;;;;;;;19.50;17.80;;;19.20;1.00;;;;;;5083455;28;20579;-70
2023/09/12 01:26:00;;;;;;;24.90;19.87;;;19.20;1.00;;;;;;5083423;28;20866;-70
2023/09/12 01:28:31;;;;;;;22.27;20.30;;;19.10;1.00;;;;;;5080453;28;20490;-72
2023/09/12 01:31:02;;;;;;;20.20;18.47;;;19.10;1.00;;;;;;5080747;28;20521;-70
2023/09/12 01:33:29;;;;;;;20.17;18.27;;;19.20;1.00;;;;;;5081605;28;20545;-73
2023/09/12 01:35:56;;;;;;;20.37;18.57;;;19.10;1.00;;;;;;5083751;28;20595;-73
2023/09/12 01:38:23;;;;;;;21.27;19.07;;;19.10;1.00;;;;;;5078000;28;20549;-69
2023/09/12 01:40:52;;;;;;;21.43;18.50;;;19.00;1.00;;;;;;5080609;28;21669;-71
2023/09/12 01:43:21;;;;;;;19.70;18.00;;;19.10;1.00;;;;;;5077532;28;20471;-69
2023/09/12 01:45:53;;;;;;;20.67;18.63;;;19.00;1.00;;;;;;5077489;28;20479;-71
2023/09/12 01:48:22;;;;;;;20.47;18.67;;;19.00;1.00;;;;;;5077366;28;20564;-72
2023/09/12 01:50:50;;;;;;;19.67;17.90;;;19.00;1.00;;;;;;5080826;27;20933;-69
2023/09/12 01:53:18;;;;;;;21.13;19.13;;;18.90;1.00;;;;;;5080210;28;20846;-70
2023/09/12 01:55:46;;;;;;;22.00;19.90;;;18.90;1.00;;;;;;5062107;28;20539;-69
2023/09/12 01:58:13;;;;;;;19.90;18.23;;;18.90;1.00;;;;;;5077417;28;20472;-69
2023/09/12 02:00:41;;;;;;;19.73;17.80;;;18.90;1.00;;;;;;5082481;28;20469;-73
2023/09/12 02:03:09;;;;;;;21.37;19.43;;;18.80;1.00;;;;;;5081106;28;20509;-70
2023/09/12 02:05:37;;;;;;;20.23;18.07;;;18.80;1.00;;;;;;5082299;28;20556;-69
2023/09/12 02:08:05;;;;;;;21.93;19.47;;;18.80;1.00;;;;;;5062427;28;20481;-71
2023/09/12 02:10:31;;;;;;;20.90;18.90;;;18.70;1.00;;;;;;5079916;28;20916;-69
2023/09/12 02:12:58;;;;;;;21.57;19.40;;;18.80;1.00;;;;;;5082925;28;20557;-69
2023/09/12 02:15:25;;;;;;;19.67;17.87;;;18.70;1.00;;;;;;5080619;28;20571;-69
2023/09/12 02:17:53;;;;;;;19.60;17.60;;;18.60;1.00;;;;;;5080151;28;20560;-69
2023/09/12 02:20:21;;;;;;;21.67;19.37;;;18.60;1.00;;;;;;5083799;28;20883;-69
2023/09/12 02:22:48;;;;;;;20.40;18.70;;;18.60;1.00;;;;;;5079340;28;20579;-69
2023/09/12 02:25:15;;;;;;;21.30;19.20;;;18.60;1.00;;;;;;5076129;28;20586;-72
2023/09/12 02:27:42;;;;;;;20.90;18.53;;;18.60;1.00;;;;;;5083440;28;20556;-70
2023/09/12 02:30:09;;;;;;;27.50;25.07;;;18.50;1.00;;;;;;5078884;28;20493;-70
2023/09/12 02:32:36;;;;;;;20.47;18.27;;;18.50;1.00;;;;;;5081058;28;20510;-71
2023/09/12 02:35:03;;;;;;;20.60;18.70;;;18.50;1.00;;;;;;5081788;28;20524;-69
2023/09/12 02:37:32;;;;;;;22.47;20.37;;;18.50;1.00;;;;;;5082100;28;20927;-71
2023/09/12 02:39:58;;;;;;;20.17;18.17;;;18.50;1.00;;;;;;5079953;28;20481;-70
2023/09/12 02:42:25;;;;;;;19.97;17.87;;;18.50;1.00;;;;;;5080783;28;20542;-70
2023/09/12 02:44:53;;;;;;;20.33;18.40;;;18.50;1.00;;;;;;5075938;28;20553;-70
2023/09/12 02:47:20;;;;;;;21.17;19.20;;;18.50;1.00;;;;;;5076830;28;20480;-71
2023/09/12 02:49:47;;;;;;;21.87;19.97;;;18.40;1.00;;;;;;5081525;28;20545;-71
2023/09/12 02:52:14;;;;;;;20.60;18.90;;;18.40;1.00;;;;;;5080004;28;20568;-71
2023/09/12 02:54:42;;;;;;;22.13;20.20;;;18.40;1.00;;;;;;5078111;28;20532;-74
2023/09/12 02:57:09;;;;;;;20.23;18.47;;;18.30;1.00;;;;;;5080022;28;20542;-70
2023/09/12 02:59:36;;;;;;;21.50;19.50;;;18.30;1.00;;;;;;5079266;28;20522;-70
2023/09/12 03:02:03;;;;;;;21.07;19.17;;;18.30;1.00;;;;;;5077779;28;20568;-71
2023/09/12 03:04:30;;;;;;;21.50;19.60;;;18.30;1.00;;;;;;5079032;28;20555;-70
2023/09/12 03:07:00;;;;;;;22.00;20.00;;;18.20;1.00;;;;;;5080555;28;20459;-73
2023/09/12 03:09:27;;;;;;;21.90;19.60;;;18.20;1.00;;;;;;5081224;28;20448;-71
2023/09/12 03:11:55;;;;;;;21.53;19.40;;;18.20;1.00;;;;;;5078925;28;20600;-70
2023/09/12 03:14:22;;;;;;;23.50;21.17;;;18.20;1.00;;;;;;5076381;28;20476;-73
2023/09/12 03:16:49;;;;;;;21.13;19.13;;;18.20;1.00;;;;;;5080496;28;22183;-75
2023/09/12 03:19:16;;;;;;;22.10;19.80;;;18.20;1.00;;;;;;5078945;28;20557;-72
2023/09/12 03:21:43;;;;;;;21.73;19.73;;;18.20;1.00;;;;;;5080230;28;20554;-70
2023/09/12 03:24:10;;;;;;;21.67;19.37;;;18.20;1.00;;;;;;5080968;28;20454;-71
2023/09/12 03:26:37;;;;;;;23.70;20.93;;;18.20;1.00;;;;;;5077378;28;20477;-79
2023/09/12 03:29:06;;;;;;;22.10;19.97;;;18.10;1.00;;;;;;5076720;28;20462;-77
2023/09/12 03:31:33;;;;;;;23.73;19.23;;;18.10;1.00;;;;;;5080328;28;20523;-75
2023/09/12 03:33:59;;;;;;;24.07;21.77;;;18.10;1.00;;;;;;5082272;28;20547;-74
2023/09/12 03:36:27;;;;;;;25.60;23.17;;;18.10;1.00;;;;;;5077056;28;20451;-74
2023/09/12 03:38:53;;;;;;;23.90;21.73;;;18.10;1.00;;;;;;5083009;28;21073;-77
2023/09/12 03:41:24;;;;;;;25.57;20.23;;;18.10;1.00;;;;;;5078341;28;20469;-76
2023/09/12 03:43:51;;;;;;;22.50;20.30;;;18.00;1.00;;;;;;5079124;28;20486;-75
2023/09/12 03:46:20;;;;;;;36.73;22.97;;;18.00;1.00;;;;;;5078112;28;20468;-75
2023/09/12 03:48:46;;;;;;;36.20;22.33;;;18.00;1.00;;;;;;5079819;28;20562;-75
2023/09/12 03:51:14;;;;;;;26.53;22.63;;;18.00;1.00;;;;;;5078523;28;20440;-75
2023/09/12 03:53:41;;;;;;;24.87;22.23;;;17.90;1.00;;;;;;5082020;28;20466;-76
2023/09/12 03:56:12;;;;;;;25.00;22.50;;;18.00;1.00;;;;;;5076410;28;20906;-75
2023/09/12 03:58:39;;;;;;;24.80;22.23;;;17.90;1.00;;;;;;5080105;28;20827;-75
2023/09/12 04:01:05;;;;;;;24.70;22.00;;;17.90;1.00;;;;;;5072832;28;21791;-76
2023/09/12 04:03:34;;;;;;;23.97;21.77;;;17.90;1.00;;;;;;5076714;28;21662;-76
2023/09/12 04:06:01;;;;;;;25.20;22.60;;;18.00;1.00;;;;;;5077739;28;20530;-75
2023/09/12 04:08:28;;;;;;;24.30;22.10;;;18.00;1.00;;;;;;5053834;28;20544;-74
2023/09/12 04:10:55;;;;;;;24.20;21.93;;;18.00;1.00;;;;;;5073329;28;20546;-76
2023/09/12 04:13:22;;;;;;;26.53;23.93;;;18.00;1.00;;;;;;5085579;28;20458;-76
2023/09/12 04:15:49;;;;;;;23.47;21.23;;;18.00;1.00;;;;;;5081780;28;20465;-75
2023/09/12 04:18:16;;;;;;;24.13;21.83;;;18.00;1.00;;;;;;5080670;28;20467;-75
2023/09/12 04:20:44;;;;;;;22.27;20.20;;;18.00;1.00;;;;;;5083495;28;20911;-73
2023/09/12 04:23:11;;;;;;;24.10;21.70;;;18.00;1.00;;;;;;5079737;28;20465;-73
2023/09/12 04:25:38;;;;;;;25.33;22.80;;;18.00;1.00;;;;;;5084375;28;21365;-75
2023/09/12 04:28:05;;;;;;;24.80;22.50;;;18.00;1.00;;;;;;5078982;28;20490;-74
2023/09/12 04:30:32;;;;;;;24.30;22.10;;;18.10;1.00;;;;;;5080242;28;20585;-75
2023/09/12 04:32:59;;;;;;;25.53;22.90;;;18.10;1.00;;;;;;5082185;28;20553;-75
2023/09/12 04:35:26;;;;;;;32.60;29.40;;;18.10;1.00;;;;;;5083674;28;20424;-77
2023/09/12 04:37:54;;;;;;;26.77;24.33;;;18.00;1.00;;;;;;5080371;28;20606;-75
2023/09/12 04:40:24;;;;;;;24.03;21.70;;;17.90;1.00;;;;;;5078932;28;20984;-72
2023/09/12 04:42:51;;;;;;;25.47;23.13;;;17.90;1.00;;;;;;5081179;28;20514;-75
2023/09/12 04:45:18;;;;;;;24.63;22.23;;;17.90;1.00;;;;;;5081775;28;20971;-76
2023/09/12 04:47:45;;;;;;;24.60;22.33;;;17.90;1.00;;;;;;5081099;28;20520;-74
2023/09/12 04:50:12;;;;;;;24.50;22.20;;;18.00;1.00;;;;;;5081933;28;20913;-72
2023/09/12 04:52:39;;;;;;;25.43;23.03;;;18.10;1.00;;;;;;5085065;28;20492;-76
2023/09/12 04:55:08;;;;;;;25.00;22.60;;;18.10;1.00;;;;;;5086690;28;20487;-77
2023/09/12 04:57:35;;;;;;;24.07;21.97;;;18.20;1.00;;;;;;5069694;28;20449;-74
2023/09/12 05:00:02;;;;;;;47.77;33.27;;;18.20;1.00;;;;;;5081193;28;20460;-75
2023/09/12 05:02:29;;;;;;;24.77;22.47;;;18.20;1.00;;;;;;5089100;28;20631;-76
2023/09/12 05:04:57;;;;;;;25.97;23.60;;;18.30;1.00;;;;;;5085421;28;20552;-75
2023/09/12 05:07:24;;;;;;;25.10;22.67;;;18.30;1.00;;;;;;5092283;28;20468;-75
2023/09/12 05:09:51;;;;;;;26.40;23.90;;;18.30;1.00;;;;;;5083875;28;20436;-74
2023/09/12 05:12:21;;;;;;;24.47;22.33;;;18.30;1.00;;;;;;5084651;28;21761;-76
2023/09/12 05:14:48;;;;;;;23.93;22.00;;;18.40;1.00;;;;;;5083073;28;20477;-76
2023/09/12 05:17:15;;;;;;;24.47;22.33;;;18.50;1.00;;;;;;5085010;28;20556;-73
2023/09/12 05:19:42;;;;;;;25.30;22.93;;;18.50;1.00;;;;;;5082819;28;20465;-74
2023/09/12 05:22:09;;;;;;;27.57;24.77;;;18.60;1.00;;;;;;5079488;28;20476;-78
2023/09/12 05:24:36;;;;;;;23.80;21.70;;;18.70;1.00;;;;;;5080241;28;20547;-75
2023/09/12 05:27:05;;;;;;;26.13;23.63;;;18.70;1.00;;;;;;5077346;28;20559;-75
2023/09/12 05:29:34;;;;;;;23.07;21.00;;;18.80;1.00;;;;;;5079640;28;20464;-76
2023/09/12 05:32:01;;;;;;;26.20;23.43;;;18.90;1.00;;;;;;5080147;28;20458;-76
2023/09/12 05:34:29;;;;;;;25.70;23.13;;;18.90;1.00;;;;;;5084874;28;21731;-75
2023/09/12 05:36:57;;;;;;;25.60;23.30;;;19.00;1.00;;;;;;5085633;28;20544;-72
2023/09/12 05:39:24;;;;;;;24.90;22.70;;;19.10;1.00;;;;;;5081882;27;20461;-75
2023/09/12 05:41:51;;;;;;;26.80;24.40;;;19.10;1.00;;;;;;5083735;28;20470;-75
2023/09/12 05:44:18;;;;;;;28.90;26.13;;;19.20;1.00;;;;;;5083798;28;20431;-75
2023/09/12 05:46:47;;;;;;;27.93;25.00;;;19.20;1.00;;;;;;5080847;28;20473;-76
2023/09/12 05:49:15;;;;;;;26.17;23.60;;;19.30;1.00;;;;;;5077890;28;20604;-76
2023/09/12 05:51:42;;;;;;;25.50;23.47;;;19.40;1.00;;;;;;5086036;28;20924;-75
2023/09/12 05:54:10;;;;;;;26.87;24.23;;;19.50;1.00;;;;;;5079688;28;20807;-74
2023/09/12 05:56:37;;;;;;;30.20;27.30;;;19.60;1.00;;;;;;5084660;28;20951;-74
2023/09/12 05:59:04;;;;;;;24.60;22.50;;;19.70;1.00;;;;;;5082476;28;21010;-76
2023/09/12 06:01:31;;;;;;;25.03;22.57;;;19.80;1.00;;;;;;5086875;28;20617;-74
2023/09/12 06:04:00;;;;;;;26.40;24.13;;;19.80;1.00;;;;;;5085457;28;20509;-74
2023/09/12 06:06:27;;;;;;;23.27;21.27;;;19.90;1.00;;;;;;5079134;28;20897;-75
2023/09/12 06:08:54;;;;;;;24.70;22.27;;;20.00;1.00;;;;;;5087385;28;20687;-77
2023/09/12 06:11:21;;;;;;;26.13;23.83;;;20.10;1.00;;;;;;5085048;28;20461;-74
2023/09/12 06:13:48;;;;;;;26.03;23.57;;;20.10;1.00;;;;;;5086703;28;20466;-75
2023/09/12 06:16:15;;;;;;;26.47;23.03;;;20.20;1.00;;;;;;5083708;28;20474;-75
2023/09/12 06:18:42;;;;;;;23.83;21.43;;;20.30;1.00;;;;;;5086432;28;20639;-74
2023/09/12 06:21:10;;;;;;;23.53;21.53;;;20.40;1.00;;;;;;5083869;28;21020;-74
2023/09/12 06:23:37;;;;;;;22.17;20.10;;;20.50;1.00;;;;;;5082406;28;20548;-75
2023/09/12 06:26:04;;;;;;;21.93;20.00;;;20.60;1.00;;;;;;5076276;28;20596;-74
2023/09/12 06:28:32;;;;;;;24.37;22.20;;;20.70;1.00;;;;;;5079928;28;20487;-74
2023/09/12 06:30:59;;;;;;;24.90;22.43;;;20.80;1.00;;;;;;5083744;28;20461;-73
2023/09/12 06:33:28;;;;;;;24.20;21.73;;;20.90;1.00;;;;;;5081017;28;20643;-77
2023/09/12 06:35:55;;;;;;;22.67;20.50;;;21.00;1.00;;;;;;5077891;28;20474;-74
2023/09/12 06:38:24;;;;;;;22.93;20.93;;;21.10;1.00;;;;;;5079932;28;20509;-74
2023/09/12 06:40:51;;;;;;;22.77;20.73;;;21.30;1.00;;;;;;5080366;28;20462;-75
2023/09/12 06:43:18;;;;;;;23.93;21.70;;;21.30;1.00;;;;;;5078693;28;20453;-74
2023/09/12 06:45:46;;;;;;;24.77;22.17;;;21.30;1.00;;;;;;5083788;28;20883;-74
2023/09/12 06:48:13;;;;;;;23.10;21.00;;;21.30;1.00;;;;;;5076255;28;20587;-74
2023/09/12 06:50:40;;;;;;;25.53;23.03;;;21.40;1.00;;;;;;5080126;28;20460;-74
2023/09/12 06:53:07;;;;;;;23.10;20.70;;;21.60;1.00;;;;;;5073990;28;20527;-72
2023/09/12 06:55:35;;;;;;;24.90;22.40;;;21.80;1.00;;;;;;5079420;28;20567;-75
2023/09/12 06:58:03;;;;;;;25.40;20.90;;;21.80;1.00;;;;;;5076240;28;20918;-71
2023/09/12 07:00:31;;;;;;;23.10;20.67;;;22.00;1.00;;;;;;5079156;28;20458;-70
2023/09/12 07:02:58;;;;;;;22.33;20.00;;;22.10;1.00;;;;;;5080211;28;20454;-70
2023/09/12 07:05:24;;;;;;;22.47;20.20;;;22.20;1.00;;;;;;5080874;28;20519;-69
2023/09/12 07:07:53;;;;;;;25.90;21.40;;;22.30;1.00;;;;;;5080249;28;22304;-69
2023/09/12 07:10:20;;;;;;;22.77;20.60;;;22.40;1.00;;;;;;5077806;28;20441;-68
2023/09/12 07:12:48;;;;;;;25.23;20.87;;;22.60;1.00;;;;;;5081669;28;20516;-69
2023/09/12 07:15:15;;;;;;;25.50;18.97;;;22.80;1.00;;;;;;5082479;28;20984;-72
2023/09/12 07:17:42;;;;;;;24.30;21.70;;;22.90;1.00;;;;;;5079895;28;20836;-71
2023/09/12 07:20:11;;;;;;;21.80;19.67;;;22.90;1.00;;;;;;5079357;28;20476;-70
2023/09/12 07:22:39;;;;;;;20.10;17.37;;;23.10;1.00;;;;;;5075427;28;21062;-70
2023/09/12 07:25:09;;;;;;;21.67;19.37;;;23.30;1.00;;;;;;5078675;28;20541;-73
2023/09/12 07:27:36;;;;;;;19.83;17.70;;;23.50;1.00;;;;;;5079773;28;20502;-70
2023/09/12 07:30:05;;;;;;;25.67;19.20;;;23.70;1.00;;;;;;5082664;28;20547;-72
2023/09/12 07:32:32;;;;;;;21.20;18.10;;;23.80;1.00;;;;;;5082235;28;20625;-69
2023/09/12 07:34:59;;;;;;;21.97;17.00;;;23.90;1.00;;;;;;5080926;28;20493;-70
2023/09/12 07:37:26;;;;;;;19.47;15.97;;;24.10;1.00;;;;;;5083487;28;20950;-72
2023/09/12 07:39:52;;;;;;;16.80;15.10;;;24.20;1.00;;;;;;5079503;28;21031;-70
2023/09/12 07:42:23;;;;;;;18.50;16.57;;;24.40;1.00;;;;;;5078847;28;20460;-72
2023/09/12 07:44:49;;;;;;;17.30;15.57;;;24.50;1.00;;;;;;5081959;28;20997;-71
2023/09/12 07:47:18;;;;;;;15.30;13.70;;;24.60;1.00;;;;;;5077074;28;20917;-72
2023/09/12 07:49:45;;;;;;;18.30;14.10;;;24.70;1.00;;;;;;5078638;28;20455;-72
2023/09/12 07:52:12;;;;;;;14.13;12.77;;;24.90;1.00;;;;;;5080550;28;20801;-70
2023/09/12 07:54:38;;;;;;;18.07;13.17;;;25.00;1.00;;;;;;5077696;28;20451;-71
2023/09/12 07:57:05;;;;;;;14.57;13.20;;;25.10;1.00;;;;;;5079024;28;20490;-72
2023/09/12 07:59:32;;;;;;;14.47;13.07;;;25.20;1.00;;;;;;5080265;28;20546;-72
2023/09/12 08:01:59;;;;;;;12.90;11.40;;;25.30;1.00;;;;;;5079854;28;20869;-72
2023/09/12 08:04:28;;;;;;;14.33;12.77;;;25.50;1.00;;;;;;5081966;28;20966;-71
2023/09/12 08:06:55;;;;;;;18.23;13.47;;;25.50;1.00;;;;;;5075539;28;20982;-66
2023/09/12 08:09:22;;;;;;;15.60;13.10;;;25.60;1.00;;;;;;5080315;28;21056;-69
2023/09/12 08:11:49;;;;;;;13.60;12.20;;;25.80;1.00;;;;;;5078300;28;20654;-70
2023/09/12 08:14:15;;;;;;;14.07;11.57;;;25.90;1.00;;;;;;5081826;28;20473;-70
2023/09/12 08:16:43;;;;;;;14.37;12.20;;;26.10;1.00;;;;;;5075823;28;20571;-70
2023/09/12 08:19:09;;;;;;;14.27;12.57;;;26.20;1.00;;;;;;5076122;28;20448;-71
2023/09/12 08:21:38;;;;;;;16.97;12.67;;;26.30;1.00;;;;;;5077407;28;20467;-75
2023/09/12 08:24:06;;;;;;;19.20;13.27;;;26.40;1.00;;;;;;5076647;28;20457;-73
2023/09/12 08:26:32;;;;;;;15.70;12.17;;;26.40;1.00;;;;;;5082011;28;20468;-72
2023/09/12 08:29:00;;;;;;;13.57;11.73;;;26.60;1.00;;;;;;5077525;28;20556;-73
2023/09/12 08:31:27;;;;;;;16.53;12.00;;;26.70;1.00;;;;;;5075580;28;20465;-71
2023/09/12 08:33:54;;;;;;;16.20;12.13;;;26.80;1.00;;;;;;5076834;28;20529;-72
2023/09/12 08:36:21;;;;;;;15.90;12.03;;;27.00;1.00;;;;;;5074600;28;21057;-75
2023/09/12 08:38:49;;;;;;;13.37;11.07;;;27.20;1.00;;;;;;5080767;28;20469;-71
2023/09/12 08:41:16;;;;;;;13.37;11.57;;;27.30;1.00;;;;;;5079069;28;20542;-74
2023/09/12 08:43:44;;;;;;;15.23;10.90;;;27.50;1.00;;;;;;5075695;28;20458;-72
2023/09/12 08:46:12;;;;;;;14.57;10.60;;;27.50;1.00;;;;;;5067741;28;21004;-71
2023/09/12 08:48:41;;;;;;;15.80;10.60;;;27.60;1.00;;;;;;5066935;28;20452;-71
2023/09/12 08:51:09;;;;;;;12.13;10.83;;;27.70;1.00;;;;;;5072437;28;20904;-71
2023/09/12 08:53:36;;;;;;;13.80;10.90;;;27.90;1.00;;;;;;5078870;28;20467;-69
2023/09/12 08:56:05;;;;;;;10.80;9.40;;;28.10;1.00;;;;;;5077250;28;20480;-71
2023/09/12 08:58:33;;;;;;;13.70;9.40;;;28.20;1.00;;;;;;5082401;28;22534;-69
2023/09/12 09:01:03;;;;;;;13.90;10.43;;;28.40;1.00;;;;;;5080481;28;20624;-74
2023/09/12 09:03:30;;;;;;;19.43;10.57;;;28.60;1.00;;;;;;5082192;28;20468;-72
2023/09/12 09:05:59;;;;;;;14.20;9.47;;;28.60;1.00;;;;;;5076614;28;20537;-71
2023/09/12 09:08:27;;;;;;;14.27;10.53;;;28.80;1.00;;;;;;5080529;28;21147;-75
2023/09/12 09:10:57;;;;;;;9.73;8.77;;;28.90;1.00;;;;;;5077164;28;20598;-72
2023/09/12 09:13:26;;;;;;;14.37;9.20;;;29.10;1.00;;;;;;5083418;28;20553;-72
2023/09/12 09:16:12;;;;;;;15.67;10.07;;;29.60;1.00;;;;;;5083405;28;20474;-72
2023/09/12 09:18:52;;;;;;;10.60;8.37;;;30.70;1.00;;;;;;5082868;28;20451;-76
2023/09/12 09:21:20;;;;;;;10.50;8.53;;;32.30;1.00;;;;;;5081824;28;20470;-76
2023/09/12 09:23:48;;;;;;;13.50;8.33;;;33.60;1.00;;;;;;5084143;28;20450;-76
2023/09/12 09:26:15;;;;;;;13.37;8.80;;;34.70;1.00;;;;;;5085735;28;20473;-76
2023/09/12 09:28:43;;;;;;;17.00;9.43;;;35.70;1.00;;;;;;5087203;28;20471;-76
2023/09/12 09:31:14;;;;;;;12.60;8.27;;;36.70;1.00;;;;;;5086143;28;20464;-76
2023/09/12 09:33:45;;;;;;;12.90;8.27;;;37.10;1.00;;;;;;5078219;28;20978;-74
2023/09/12 09:36:12;;;;;;;8.63;7.73;;;37.80;1.00;;;;;;5079699;28;20479;-76
2023/09/12 09:38:41;;;;;;;14.83;9.30;;;38.40;1.00;;;;;;5080887;28;20457;-76
2023/09/12 09:41:09;;;;;;;11.33;7.57;;;38.50;1.00;;;;;;5075659;28;20550;-75
2023/09/12 09:43:36;;;;;;;10.10;8.03;;;38.60;1.00;;;;;;5078017;28;20487;-76
2023/09/12 09:46:04;;;;;;;16.70;8.33;;;38.90;1.00;;;;;;5077810;28;20577;-76
2023/09/12 09:48:32;;;;;;;10.63;7.93;;;38.90;1.00;;;;;;5079053;28;20574;-77
2023/09/12 09:51:02;;;;;;;12.37;8.43;;;39.10;1.00;;;;;;5081854;28;20604;-74
2023/09/12 09:53:30;;;;;;;13.80;9.17;;;39.00;1.00;;;;;;5081570;28;20486;-75
2023/09/12 09:56:11;;;;;;;9.70;8.60;;;39.30;1.00;;;;;;5080727;28;20493;-74
2023/09/12 09:58:43;;;;;;;13.90;9.40;;;39.40;1.00;;;;;;5078748;28;20446;-76
2023/09/12 10:01:13;;;;;;;11.27;8.93;;;39.00;1.00;;;;;;5081524;28;21090;-74
2023/09/12 10:03:41;;;;;;;15.93;10.27;;;39.00;1.00;;;;;;5080971;28;20481;-75
2023/09/12 10:06:09;;;;;;;10.40;9.30;;;39.20;1.00;;;;;;5081340;28;20889;-74
2023/09/12 10:08:38;;;;;;;12.00;9.50;;;39.40;1.00;;;;;;5082189;28;20570;-75
2023/09/12 10:11:05;;;;;;;13.17;10.23;;;39.80;1.00;;;;;;5084915;28;21034;-76
2023/09/12 10:13:36;;;;;;;12.33;10.00;;;40.20;1.00;;;;;;5082705;28;20550;-75
2023/09/12 10:16:05;;;;;;;17.20;11.10;;;40.30;1.00;;;;;;5079743;28;20497;-75
2023/09/12 10:18:50;;;;;;;10.03;8.70;;;40.30;1.00;;;;;;5083923;28;20458;-75
2023/09/12 10:21:23;;;;;;;11.60;10.50;;;40.10;1.00;;;;;;5087172;28;20913;-74
2023/09/12 10:23:50;;;;;;;14.17;11.67;;;39.80;1.00;;;;;;5083188;28;20632;-75
2023/09/12 10:26:20;;;;;;;11.33;10.20;;;39.90;1.00;;;;;;5081880;28;20474;-75
2023/09/12 10:28:47;;;;;;;11.80;10.00;;;39.90;1.00;;;;;;5080323;28;20865;-74
2023/09/12 10:31:15;;;;;;;11.73;10.50;;;40.00;1.00;;;;;;5080981;28;20459;-73
2023/09/12 10:33:45;;;;;;;13.93;10.97;;;40.00;1.00;;;;;;5082372;28;20473;-75
2023/09/12 10:36:13;;;;;;;19.80;12.07;;;40.20;1.00;;;;;;5081199;28;20467;-75
2023/09/12 10:38:44;;;;;;;11.50;10.27;;;40.30;1.00;;;;;;5073013;28;20537;-75
2023/09/12 10:41:14;;;;;;;13.57;11.37;;;40.70;1.00;;;;;;5084266;28;20922;-74
2023/09/12 10:43:42;;;;;;;16.10;11.87;;;41.30;1.00;;;;;;5084402;28;20462;-74
2023/09/12 10:46:09;;;;;;;13.90;11.60;;;41.30;1.00;;;;;;5082058;28;20557;-74
2023/09/12 10:48:37;;;;;;;14.10;11.33;;;41.70;1.00;;;;;;5082313;28;20538;-75
2023/09/12 10:51:06;;;;;;;16.23;12.13;;;41.30;1.00;;;;;;5084302;28;20546;-75
2023/09/12 10:53:33;;;;;;;11.27;10.00;;;41.20;1.00;;;;;;5063897;28;20451;-73
2023/09/12 10:56:01;;;;;;;20.60;10.67;;;41.40;1.00;;;;;;5084837;28;20478;-71
2023/09/12 10:58:28;;;;;;;16.43;10.33;;;41.40;1.00;;;;;;5079446;28;20463;-72
2023/09/12 11:01:24;;;;;;;12.90;10.30;;;41.70;1.00;;;;;;5080049;28;21118;-71
2023/09/12 11:03:51;;;;;;;14.20;10.90;;;41.50;1.00;;;;;;5080223;28;20447;-73
2023/09/12 11:06:28;;;;;;;17.70;12.17;;;41.60;1.00;;;;;;5077275;28;21049;-72
2023/09/12 11:09:18;;;;;;;11.97;9.47;;;41.90;1.00;;;;;;5078643;28;20470;-72
2023/09/12 11:11:47;;;;;;;12.93;8.67;;;42.30;1.00;;;;;;5080058;28;20474;-72
2023/09/12 11:14:16;;;;;;;13.10;9.30;;;42.60;1.00;;;;;;5083190;28;20557;-74
2023/09/12 11:16:43;;;;;;;10.97;9.40;;;43.30;1.00;;;;;;5083544;28;21630;-72
2023/09/12 11:19:18;;;;;;;13.97;8.80;;;43.80;1.00;;;;;;5079331;28;20489;-71
2023/09/12 11:21:48;;;;;;;9.93;8.47;;;44.30;1.00;;;;;;5081879;28;20837;-73
2023/09/12 11:24:16;;;;;;;11.87;7.80;;;44.70;1.00;;;;;;5083752;28;20497;-71
2023/09/12 11:26:58;;;;;;;11.90;8.43;;;45.10;1.00;;;;;;5078100;28;20555;-71
2023/09/12 11:29:35;;;;;;;12.17;8.97;;;45.20;1.00;;;;;;5077947;28;20467;-72
2023/09/12 11:32:03;;;;;;;9.73;8.07;;;45.40;1.00;;;;;;5080137;28;20606;-74
2023/09/12 11:34:32;;;;;;;11.27;9.27;;;45.40;1.00;;;;;;5082504;28;20495;-72
2023/09/12 11:37:03;;;;;;;14.60;9.23;;;45.20;1.00;;;;;;5080238;28;20473;-72
2023/09/12 11:39:31;;;;;;;11.20;8.23;;;45.50;1.00;;;;;;5035367;28;20973;-74
2023/09/12 11:41:59;;;;;;;14.93;9.13;;;45.50;1.00;;;;;;5081767;28;20462;-74
2023/09/12 11:44:30;;;;;;;16.30;9.90;;;45.20;1.00;;;;;;5079481;28;20447;-73
2023/09/12 11:47:02;;;;;;;12.57;10.10;;;45.40;1.00;;;;;;5082901;28;20489;-73
2023/09/12 11:49:36;;;;;;;12.47;11.23;;;45.70;1.00;;;;;;5084562;28;20456;-71
2023/09/12 11:52:08;;;;;;;11.43;8.63;;;45.70;1.00;;;;;;5079607;28;20490;-73
2023/09/12 11:54:35;;;;;;;14.83;9.40;;;45.60;1.00;;;;;;5080096;28;20466;-73
2023/09/12 11:57:03;;;;;;;14.27;9.53;;;45.00;1.00;;;;;;5079332;28;20561;-72
2023/09/12 11:59:30;;;;;;;10.30;8.60;;;45.10;1.00;;;;;;5079157;28;20442;-73
2023/09/12 12:01:57;;;;;;;10.90;8.73;;;45.30;1.00;;;;;;5081587;28;20582;-72
2023/09/12 12:04:26;;;;;;;11.20;8.17;;;45.30;1.00;;;;;;5066324;28;20435;-71
2023/09/12 12:06:53;;;;;;;9.47;8.43;;;45.20;1.00;;;;;;5079483;28;20559;-72
2023/09/12 12:09:21;;;;;;;15.10;9.10;;;45.10;1.00;;;;;;5082423;28;20517;-71
2023/09/12 12:11:48;;;;;;;9.23;7.77;;;45.00;1.00;;;;;;5084044;28;20474;-71
2023/09/12 12:14:19;;;;;;;8.67;7.93;;;45.70;1.00;;;;;;5079924;28;20462;-72
2023/09/12 12:16:47;;;;;;;9.60;8.03;;;46.10;1.00;;;;;;5077966;28;20470;-71
2023/09/12 12:19:15;;;;;;;8.77;7.90;;;45.70;1.00;;;;;;5078986;28;20446;-70
2023/09/12 12:21:43;;;;;;;9.20;7.30;;;44.50;1.00;;;;;;5081561;28;20469;-74
2023/09/12 12:24:12;;;;;;;9.50;8.40;;;43.00;1.00;;;;;;5079658;28;20554;-71
2023/09/12 12:26:44;;;;;;;12.77;9.10;;;42.00;1.00;;;;;;5078965;28;20474;-71
2023/09/12 12:29:13;;;;;;;9.53;8.47;;;42.30;1.00;;;;;;5078050;28;20958;-72
2023/09/12 12:31:40;;;;;;;9.00;7.43;;;43.30;1.00;;;;;;5053579;28;20434;-74
2023/09/12 12:34:07;;;;;;;7.43;6.70;;;44.30;1.00;;;;;;5085563;28;21608;-71
2023/09/12 12:36:41;;;;;;;7.50;6.67;;;45.10;1.00;;;;;;5087231;28;20561;-72
2023/09/12 12:39:12;;;;;;;9.27;8.33;;;45.50;1.00;;;;;;5080511;28;21014;-72
2023/09/12 12:41:41;;;;;;;9.43;7.83;;;46.10;1.00;;;;;;5076104;28;20979;-72
2023/09/12 12:44:08;;;;;;;7.73;7.00;;;46.20;1.00;;;;;;5072744;28;20855;-73
2023/09/12 12:46:49;;;;;;;7.87;7.27;;;46.40;1.00;;;;;;5071554;28;21057;-72